Hauptseite
METAR-TAF:

METAR-TAF

Flughäfen :

Flughafen Metz-Nancy-Lothringen

Metz-Nancy-Lorraine, Frankreich

Breite: 48-59N, Länge: 006-15E, Höhe: 264 m

Beobachtung

Neuester Wetterbericht von vor 34 Minuten, um 19:30 UTC
Wind 5 kt aus Nord/Nordost
Temperatur -2°C
Luftfeuchtigkeit 86%
Luftdruck 1017 hPa
Sichtweite: 6000 m

METAR: LFJL 201930Z AUTO 03005KT 6000 NSC M02/M04 Q1017 NOSIG

Zeit: 21:04 (20:04 UTC)

Prognose

Neuester Wetterbericht von vor 2 Stunden und 58 Minuten, um 17:06 UTC
Gültige Prognose vom 20 um 18 UTC bis 21 um 18 UTC
Wind 6 kt aus Nordost
Sichtweite: 8000 m
Leicht bewölkt in der Höhe von 1500 ft
Aufgelockert bewölkt in der Höhe von 2500 ft
Wahrscheinlichkeit 40% :
Zeitweise
vom 20 um 23 UTC bis 21 um 08 UTC
Sichtweite: 4000 m
feuchter Dunst

TAF: LFJL 201706Z 2018/2118 05006KT 8000 FEW015 SCT025 PROB40 TEMPO 2023/2108 4000 BR

Wetterbeobachtungen und Prognosen von mehr als 4000 Flughäfen (METAR und TAF Bericht).

Die verfügbaren Stationen werden durch gelbe und rote Markierungen auf der Karte dargestellt.

Führen Sie die Maus auf sie, um den Namen der Station zu sehen.

Darauf klicken, um die Beobachtung von Wetterbeobachtungen und Prognosen zu sehen.

Um die Karte zu ändern : klicken Sie auf den grünen Tasten mit einem schwarzen Kreuz Zum Vergrößern, auf den grünen Button mit einem Gedankenstrich zu verkleinern, oder auf die grünen Pfeile für benachbarte Karten.


METAR-TAF: